Main page
METAR-TAF:

METAR-TAF

Airports :

Tangier, Morocco

Tangier Ibn Battouta Airport

latitude: 35-44N, longitude: 005-54W, elevation: 19 m

Current weather observation

The report was made 20 minutes ago, at 07:00 UTC
Wind 9 kt from the East
Temperature 10°C
Humidity 82%
Pressure 1016 hPa
Visibility: 8000 m
Few clouds at a height of 1000 ft

METAR: GMTT 220700Z 09009KT 8000 FEW010 10/07 Q1016 NOSIG

Time: 07:20 (07:20 UTC)

Forecast

The report was made 2 hours and 20 minutes ago, at 05:00 UTC
Forecast valid from 22 at 06 UTC to 23 at 12 UTC
Wind 10 kt from the East
Visibility: 6000 m
Few clouds at a height of 1000 ft
Temporary
from 22 at 11 UTC to 22 at 18 UTC
Wind 8 kt from the Northwest

TAF: GMTT 220500Z 2206/2312 10010KT 6000 FEW010 TEMPO 2211/2218 32008KT

Weather observations and forecasts of more than 4000 airports (METAR and TAF reports).

The available stations are represented by yellow and red dots on the map.

Hover mouse over dot to see the name of the station.

Then click to see weather observations and forecasts.

To change the map : click on the green buttons with a black cross to zoom in, on the green button with a dash to zoom out, or on the green arrows for adjacent maps.


METAR-TAF: